createdAt,value
2019-05-22T00:01:38.453Z,69.48
2019-05-22T00:04:24.708Z,69.23
2019-05-22T00:07:07.123Z,68.99
2019-05-22T00:09:39.134Z,69.18
2019-05-22T00:12:11.996Z,69.01
2019-05-22T00:14:40.224Z,69.02
2019-05-22T00:17:09.738Z,69.25
2019-05-22T00:19:37.660Z,69.16
2019-05-22T00:22:10.586Z,68.92
2019-05-22T00:24:43.411Z,69.05
2019-05-22T00:27:11.793Z,68.90
2019-05-22T00:29:40.687Z,69.55
2019-05-22T00:32:09.464Z,70.13
2019-05-22T00:34:37.121Z,69.37
2019-05-22T00:37:05.398Z,68.98
2019-05-22T00:39:33.552Z,69.05
2019-05-22T00:42:02.385Z,69.27
2019-05-22T00:44:29.842Z,71.12
2019-05-22T00:46:59.934Z,69.47
2019-05-22T00:49:29.433Z,69.59
2019-05-22T00:52:18.950Z,69.38
2019-05-22T00:54:57.542Z,69.07
2019-05-22T00:57:46.813Z,70.03
2019-05-22T01:00:21.389Z,69.96
2019-05-22T01:02:51.524Z,69.91
2019-05-22T01:05:21.157Z,70.07
2019-05-22T01:07:50.394Z,70.54
2019-05-22T01:10:17.921Z,69.65
2019-05-22T01:12:49.717Z,69.90
2019-05-22T01:15:20.766Z,68.93
2019-05-22T01:17:49.480Z,69.40
2019-05-22T01:20:21.489Z,69.59
2019-05-22T01:22:49.043Z,69.50
2019-05-22T01:25:21.957Z,69.45
2019-05-22T01:27:49.583Z,69.39
2019-05-22T01:30:27.568Z,70.40
2019-05-22T01:32:57.763Z,69.61
2019-05-22T01:35:32.648Z,70.35
2019-05-22T01:38:01.413Z,69.93
2019-05-22T01:40:41.950Z,69.40
2019-05-22T01:43:11.123Z,68.78
2019-05-22T01:45:39.207Z,69.72
2019-05-22T01:48:14.556Z,69.51
2019-05-22T01:50:48.121Z,70.61
2019-05-22T01:53:23.294Z,70.20
2019-05-22T01:55:56.488Z,70.22
2019-05-22T01:58:24.080Z,70.80
2019-05-22T02:00:54.569Z,70.35
2019-05-22T02:03:22.621Z,70.25
2019-05-22T02:05:50.884Z,71.14
2019-05-22T02:08:19.910Z,70.66
2019-05-22T02:10:49.726Z,70.62
2019-05-22T02:13:30.322Z,69.73
2019-05-22T02:15:59.714Z,69.81
2019-05-22T02:18:29.290Z,69.85
2019-05-22T02:20:57.700Z,69.87
2019-05-22T02:23:25.710Z,69.46
2019-05-22T02:25:53.113Z,69.44
2019-05-22T02:28:21.147Z,69.67
2019-05-22T02:30:48.751Z,69.55
2019-05-22T02:33:20.550Z,69.46
2019-05-22T02:35:48.456Z,71.16
2019-05-22T02:38:17.256Z,70.24
2019-05-22T02:40:49.109Z,69.76
2019-05-22T02:43:17.859Z,69.49
2019-05-22T02:45:45.877Z,69.55
2019-05-22T02:48:15.102Z,69.45
2019-05-22T02:50:42.855Z,69.82
2019-05-22T02:53:12.964Z,69.53
2019-05-22T02:55:41.140Z,69.77
2019-05-22T02:58:10.332Z,69.54
2019-05-22T03:00:56.325Z,69.77
2019-05-22T03:03:26.018Z,69.39
2019-05-22T03:05:54.141Z,69.69
2019-05-22T03:08:24.451Z,69.43
2019-05-22T03:10:51.932Z,70.25
2019-05-22T03:13:23.678Z,69.83
2019-05-22T03:15:54.144Z,69.51
2019-05-22T03:18:21.302Z,69.50
2019-05-22T03:20:49.168Z,69.44
2019-05-22T03:23:39.295Z,69.54
2019-05-22T03:26:08.818Z,69.09
2019-05-22T03:28:37.948Z,70.05
2019-05-22T03:31:06.730Z,71.13
2019-05-22T03:33:34.926Z,70.02
2019-05-22T03:36:10.492Z,69.63
2019-05-22T03:38:40.273Z,69.71
2019-05-22T03:41:10.221Z,70.32
2019-05-22T03:43:40.387Z,69.76
2019-05-22T03:46:30.998Z,70.04
2019-05-22T03:48:59.890Z,70.50
2019-05-22T03:51:27.865Z,70.87
2019-05-22T03:53:56.454Z,70.00
2019-05-22T03:56:25.265Z,70.65
2019-05-22T03:58:52.849Z,70.52
2019-05-22T04:01:21.644Z,70.89
2019-05-22T04:03:48.992Z,71.41
2019-05-22T04:06:18.983Z,70.21
2019-05-22T04:08:49.848Z,70.25
2019-05-22T04:11:18.210Z,71.06
2019-05-22T04:13:46.472Z,70.05
2019-05-22T04:16:15.696Z,70.55
2019-05-22T04:18:43.362Z,69.92
2019-05-22T04:21:10.759Z,70.65
2019-05-22T04:23:44.235Z,70.30
2019-05-22T04:26:13.035Z,70.59
2019-05-22T04:28:50.219Z,70.03
2019-05-22T04:31:29.531Z,70.97
2019-05-22T04:33:57.491Z,69.94
2019-05-22T04:36:26.374Z,69.91
2019-05-22T04:38:54.180Z,70.70
2019-05-22T04:41:22.316Z,70.50
2019-05-22T04:43:54.486Z,70.24
2019-05-22T04:46:22.553Z,69.47
2019-05-22T04:48:50.413Z,69.75
2019-05-22T04:51:28.182Z,69.88
2019-05-22T04:53:57.240Z,69.87
2019-05-22T04:56:26.302Z,69.49
2019-05-22T04:58:54.692Z,70.05
2019-05-22T05:01:23.878Z,69.59
2019-05-22T05:03:52.826Z,69.85
2019-05-22T05:06:23.305Z,70.17
2019-05-22T05:08:51.700Z,70.28
2019-05-22T05:11:20.623Z,70.34
2019-05-22T05:13:48.088Z,70.12
2019-05-22T05:16:15.768Z,70.20
2019-05-22T05:18:43.523Z,69.55
2019-05-22T05:21:10.924Z,69.27
2019-05-22T05:23:38.124Z,69.31
2019-05-22T05:26:06.062Z,69.35
2019-05-22T05:28:33.927Z,69.18
2019-05-22T05:31:10.160Z,68.92
2019-05-22T05:34:22.360Z,69.21
2019-05-22T05:36:51.459Z,69.59
2019-05-22T05:40:35.416Z,69.09
2019-05-22T05:43:06.071Z,69.42
2019-05-22T05:45:34.157Z,68.94
2019-05-22T05:48:06.537Z,70.05
2019-05-22T05:50:40.153Z,69.17
2019-05-22T05:53:08.672Z,69.25
2019-05-22T05:56:13.921Z,69.06
2019-05-22T05:58:43.166Z,69.01
2019-05-22T06:01:27.619Z,68.77
2019-05-22T06:03:57.835Z,68.59
2019-05-22T06:07:23.567Z,68.38
2019-05-22T06:10:49.818Z,68.02
2019-05-22T06:13:17.547Z,67.88
2019-05-22T06:16:44.340Z,67.85
2019-05-22T06:19:11.838Z,67.50
2019-05-22T06:21:43.697Z,67.50
2019-05-22T06:24:24.886Z,67.31
2019-05-22T06:27:15.959Z,67.08
2019-05-22T06:29:56.990Z,66.95
2019-05-22T06:33:16.455Z,66.68
2019-05-22T06:35:47.589Z,66.16
2019-05-22T06:38:56.726Z,66.11
2019-05-22T06:41:30.772Z,66.23
2019-05-22T06:44:37.345Z,65.18
2019-05-22T06:47:09.764Z,65.63
2019-05-22T06:49:46.232Z,65.56
2019-05-22T06:52:14.742Z,65.03
2019-05-22T06:54:43.447Z,62.80
2019-05-22T06:57:14.527Z,64.09
2019-05-22T06:59:44.230Z,63.77
2019-05-22T07:02:14.157Z,63.77
2019-05-22T07:04:42.653Z,64.27
2019-05-22T07:07:12.394Z,62.98
2019-05-22T07:09:41.305Z,62.52
2019-05-22T07:12:12.123Z,63.43
2019-05-22T07:15:27.694Z,61.65
2019-05-22T07:17:57.026Z,61.19
2019-05-22T07:20:27.747Z,58.95
2019-05-22T07:22:57.251Z,57.51
2019-05-22T07:25:27.351Z,57.84
2019-05-22T07:27:57.710Z,59.21
2019-05-22T07:30:25.701Z,56.96
2019-05-22T07:32:53.808Z,56.09
2019-05-22T07:35:22.475Z,56.80
2019-05-22T07:37:52.378Z,56.51
2019-05-22T07:40:20.490Z,54.64
2019-05-22T07:42:49.658Z,54.18
2019-05-22T07:45:19.269Z,56.77
2019-05-22T07:47:48.369Z,55.78
2019-05-22T07:50:18.123Z,57.15
2019-05-22T07:52:47.042Z,55.40
2019-05-22T07:55:17.158Z,52.66
2019-05-22T07:57:50.120Z,57.05
2019-05-22T08:00:19.940Z,55.99
2019-05-22T08:02:49.550Z,57.22
2019-05-22T08:05:20.746Z,57.65
2019-05-22T08:07:50.173Z,57.87
2019-05-22T08:10:23.104Z,57.58
2019-05-22T08:12:51.217Z,57.26
2019-05-22T08:15:27.213Z,56.11
2019-05-22T08:17:57.427Z,56.01
2019-05-22T08:20:25.608Z,55.72
2019-05-22T08:22:56.173Z,56.78
2019-05-22T08:25:31.729Z,56.67
2019-05-22T08:28:02.131Z,57.15
2019-05-22T08:30:31.267Z,55.90
2019-05-22T08:33:08.832Z,55.55
2019-05-22T08:35:40.974Z,55.50
2019-05-22T08:38:10.666Z,53.78
2019-05-22T08:40:46.648Z,54.11
2019-05-22T08:43:19.722Z,55.14
2019-05-22T08:46:06.809Z,52.74
2019-05-22T08:48:38.485Z,52.79
2019-05-22T08:51:11.043Z,52.69
2019-05-22T08:53:47.263Z,53.28
2019-05-22T08:56:14.314Z,52.67
2019-05-22T08:58:51.488Z,52.79
2019-05-22T09:01:24.101Z,51.29
2019-05-22T09:03:51.805Z,51.93
2019-05-22T09:06:21.691Z,52.10
2019-05-22T09:08:50.386Z,48.64
2019-05-22T09:11:23.133Z,50.73
2019-05-22T09:13:52.955Z,51.31
2019-05-22T09:16:22.032Z,48.80
2019-05-22T09:18:52.957Z,47.82
2019-05-22T09:21:27.983Z,48.51
2019-05-22T09:24:16.028Z,49.62
2019-05-22T09:26:45.481Z,48.51
2019-05-22T09:29:24.289Z,45.14
2019-05-22T09:31:55.283Z,46.75
2019-05-22T09:34:35.264Z,45.54
2019-05-22T09:37:03.307Z,44.25
2019-05-22T09:39:30.961Z,45.19
2019-05-22T09:41:58.561Z,44.85
2019-05-22T09:44:27.882Z,44.63
2019-05-22T09:46:55.649Z,46.54
2019-05-22T09:49:24.199Z,46.70
2019-05-22T09:51:51.958Z,42.38
2019-05-22T09:54:20.482Z,42.44
2019-05-22T09:56:50.795Z,43.05
2019-05-22T09:59:22.951Z,43.29
2019-05-22T10:01:50.527Z,41.18
2019-05-22T10:04:20.514Z,41.48
2019-05-22T10:06:48.306Z,41.26
2019-05-22T10:09:16.221Z,38.94
2019-05-22T10:11:48.017Z,40.97
2019-05-22T10:14:19.515Z,38.76
2019-05-22T10:16:49.198Z,37.79
2019-05-22T10:19:17.505Z,37.51
2019-05-22T10:21:48.024Z,38.42
2019-05-22T10:24:17.578Z,37.24
2019-05-22T10:26:53.601Z,36.18
2019-05-22T10:29:25.163Z,34.14
2019-05-22T10:31:57.835Z,34.26
2019-05-22T10:34:27.191Z,33.33
2019-05-22T10:36:55.828Z,33.41
2019-05-22T10:39:25.079Z,35.67
2019-05-22T10:41:52.694Z,34.47
2019-05-22T10:44:20.120Z,35.03
2019-05-22T10:46:47.696Z,36.44
2019-05-22T10:49:15.347Z,36.97
2019-05-22T10:51:43.585Z,35.81
2019-05-22T10:54:12.002Z,35.72
2019-05-22T10:56:42.897Z,34.42
2019-05-22T10:59:11.260Z,36.38
2019-05-22T11:01:38.685Z,36.54
2019-05-22T11:04:06.720Z,36.45
2019-05-22T11:06:34.373Z,37.54
2019-05-22T11:09:02.933Z,37.05
2019-05-22T11:11:30.705Z,37.80
2019-05-22T11:14:01.838Z,38.38
2019-05-22T11:16:28.518Z,37.31
2019-05-22T11:18:59.327Z,38.24
2019-05-22T11:21:26.943Z,38.16
2019-05-22T11:24:03.397Z,38.50
2019-05-22T11:26:39.650Z,38.47
2019-05-22T11:29:09.745Z,37.26
2019-05-22T11:31:39.535Z,38.37
2019-05-22T11:34:15.809Z,36.20
2019-05-22T11:36:45.987Z,35.86
2019-05-22T11:39:16.101Z,34.29
2019-05-22T11:41:44.440Z,36.43
2019-05-22T11:44:12.534Z,36.41
2019-05-22T11:46:40.028Z,34.29
2019-05-22T11:49:09.239Z,35.74
2019-05-22T11:51:42.680Z,34.88
2019-05-22T11:54:12.319Z,34.58
2019-05-22T11:56:39.666Z,35.32
2019-05-22T11:59:09.266Z,35.13
2019-05-22T12:01:37.705Z,34.79
2019-05-22T12:04:10.812Z,35.54
2019-05-22T12:06:41.244Z,35.11
2019-05-22T12:09:10.804Z,34.28
2019-05-22T12:11:43.255Z,34.58
2019-05-22T12:14:13.857Z,34.78
2019-05-22T12:16:42.814Z,34.71
2019-05-22T12:19:14.760Z,32.43
2019-05-22T12:21:45.159Z,34.51
2019-05-22T12:24:25.963Z,33.57
2019-05-22T12:26:42.766Z,33.97
2019-05-22T12:29:19.097Z,34.51
2019-05-22T12:31:47.138Z,34.25
2019-05-22T12:34:15.232Z,35.08
2019-05-22T12:36:51.048Z,34.81
2019-05-22T12:39:18.883Z,34.27
2019-05-22T12:41:50.371Z,34.49
2019-05-22T12:44:29.426Z,35.05
2019-05-22T12:46:57.161Z,33.61
2019-05-22T12:49:26.789Z,33.97
2019-05-22T12:52:05.973Z,31.86
2019-05-22T12:54:48.303Z,33.19
2019-05-22T12:57:18.134Z,32.54
2019-05-22T12:59:46.847Z,32.91
2019-05-22T13:02:16.474Z,32.44
2019-05-22T13:04:45.226Z,33.20
2019-05-22T13:07:13.633Z,30.75
2019-05-22T13:09:47.887Z,31.73
2019-05-22T13:12:16.396Z,33.78
2019-05-22T13:14:44.524Z,33.97
2019-05-22T13:17:14.849Z,33.27
2019-05-22T13:19:42.971Z,33.34
2019-05-22T13:22:15.670Z,33.11
2019-05-22T13:24:43.682Z,34.65
2019-05-22T13:27:14.727Z,34.76
2019-05-22T13:29:42.576Z,33.26
2019-05-22T13:32:13.313Z,33.54
2019-05-22T13:34:41.769Z,34.53
2019-05-22T13:37:10.531Z,35.96
2019-05-22T13:39:38.544Z,34.44
2019-05-22T13:42:07.225Z,34.49
2019-05-22T13:44:35.901Z,35.32
2019-05-22T13:47:04.465Z,35.27
2019-05-22T13:49:34.039Z,35.11
2019-05-22T13:52:02.605Z,36.03
2019-05-22T13:54:30.436Z,34.38
2019-05-22T13:56:58.310Z,35.61
2019-05-22T13:59:42.169Z,36.52
2019-05-22T14:02:13.609Z,36.01
2019-05-22T14:04:41.190Z,35.50
2019-05-22T14:07:09.846Z,35.55
2019-05-22T14:09:37.630Z,35.57
2019-05-22T14:12:06.701Z,34.41
2019-05-22T14:14:34.257Z,35.86
2019-05-22T14:17:07.100Z,34.00
2019-05-22T14:19:40.759Z,35.41
2019-05-22T14:22:08.517Z,33.79
2019-05-22T14:24:38.768Z,34.21
2019-05-22T14:27:06.147Z,37.01
2019-05-22T14:29:33.655Z,36.67
2019-05-22T14:32:03.509Z,36.18
2019-05-22T14:34:31.262Z,36.42
2019-05-22T14:37:03.361Z,37.89
2019-05-22T14:39:31.340Z,35.22
2019-05-22T14:42:03.203Z,37.53
2019-05-22T14:44:33.938Z,36.65
2019-05-22T14:47:13.188Z,38.33
2019-05-22T14:49:34.077Z,37.08
2019-05-22T14:52:02.438Z,38.17
2019-05-22T14:54:31.234Z,37.50
2019-05-22T14:57:00.039Z,38.56
2019-05-22T14:59:28.096Z,38.64
2019-05-22T15:01:56.823Z,38.49
2019-05-22T15:04:27.382Z,38.70
2019-05-22T15:06:57.613Z,38.49
2019-05-22T15:09:26.855Z,38.55
2019-05-22T15:11:57.493Z,38.06
2019-05-22T15:14:25.715Z,38.42
2019-05-22T15:16:54.108Z,37.85
2019-05-22T15:19:23.250Z,39.50
2019-05-22T15:21:59.790Z,39.14
2019-05-22T15:24:29.621Z,39.43
2019-05-22T15:26:58.807Z,38.48
2019-05-22T15:29:30.273Z,37.90
2019-05-22T15:32:01.438Z,37.83
2019-05-22T15:34:30.871Z,38.73
2019-05-22T15:36:58.916Z,37.91
2019-05-22T15:39:29.955Z,37.68
2019-05-22T15:42:03.114Z,38.85
2019-05-22T15:44:30.771Z,38.58
2019-05-22T15:46:58.694Z,34.99
2019-05-22T15:49:26.580Z,37.50
2019-05-22T15:51:54.586Z,39.13
2019-05-22T15:54:22.497Z,37.46
2019-05-22T15:56:53.981Z,38.51
2019-05-22T15:59:22.533Z,38.60
2019-05-22T16:01:51.948Z,39.22
2019-05-22T16:04:22.609Z,38.00
2019-05-22T16:06:51.505Z,39.48
2019-05-22T16:09:20.885Z,38.67
2019-05-22T16:11:52.550Z,39.45
2019-05-22T16:14:20.766Z,39.03
2019-05-22T16:16:50.519Z,38.78
2019-05-22T16:19:23.185Z,38.72
2019-05-22T16:22:01.469Z,39.15
2019-05-22T16:24:30.570Z,38.97
2019-05-22T16:27:00.153Z,38.50
2019-05-22T16:29:29.441Z,39.78
2019-05-22T16:32:00.058Z,40.07
2019-05-22T16:34:35.493Z,40.82
2019-05-22T16:37:05.205Z,40.14
2019-05-22T16:39:34.545Z,39.93
2019-05-22T16:42:02.664Z,41.62
2019-05-22T16:44:34.331Z,41.08
2019-05-22T16:47:06.130Z,40.13
2019-05-22T16:49:49.328Z,39.28
2019-05-22T16:52:23.924Z,38.24
2019-05-22T16:54:53.659Z,39.82
2019-05-22T16:57:22.468Z,40.54
2019-05-22T16:59:50.392Z,40.12
2019-05-22T17:02:19.553Z,40.57
2019-05-22T17:04:52.054Z,40.82
2019-05-22T17:07:20.633Z,41.01
2019-05-22T17:09:50.702Z,40.04
2019-05-22T17:12:19.540Z,40.57
2019-05-22T17:14:51.854Z,41.54
2019-05-22T17:17:21.156Z,41.60
2019-05-22T17:19:52.998Z,41.13
2019-05-22T17:22:20.941Z,40.55
2019-05-22T17:24:51.143Z,41.18
2019-05-22T17:27:20.198Z,41.23
2019-05-22T17:29:50.124Z,40.88
2019-05-22T17:32:19.343Z,41.38
2019-05-22T17:34:51.543Z,39.66
2019-05-22T17:37:20.541Z,40.44
2019-05-22T17:39:51.031Z,40.89
2019-05-22T17:42:25.822Z,40.07
2019-05-22T17:44:54.714Z,40.11
2019-05-22T17:47:24.109Z,40.74
2019-05-22T17:49:52.957Z,40.36
2019-05-22T17:52:24.005Z,40.54
2019-05-22T17:54:52.329Z,41.24
2019-05-22T17:57:21.824Z,41.42
2019-05-22T17:59:50.603Z,41.22
2019-05-22T18:02:23.022Z,41.99
2019-05-22T18:04:50.915Z,41.51
2019-05-22T18:07:19.074Z,41.99
2019-05-22T18:09:46.729Z,42.22
2019-05-22T18:12:15.311Z,42.06
2019-05-22T18:14:43.273Z,42.49
2019-05-22T18:17:11.870Z,43.13
2019-05-22T18:19:39.913Z,42.31
2019-05-22T18:22:09.463Z,42.29
2019-05-22T18:24:39.805Z,43.59
2019-05-22T18:27:07.570Z,43.30
2019-05-22T18:29:34.988Z,43.70
2019-05-22T18:32:02.956Z,43.38
2019-05-22T18:34:30.800Z,43.80
2019-05-22T18:36:58.628Z,43.84
2019-05-22T18:39:26.873Z,43.63
2019-05-22T18:41:54.861Z,44.43
2019-05-22T18:44:22.543Z,44.69
2019-05-22T18:46:50.265Z,44.45
2019-05-22T18:49:17.805Z,44.97
2019-05-22T18:51:45.744Z,45.17
2019-05-22T18:54:13.094Z,45.17
2019-05-22T18:56:42.336Z,45.30
2019-05-22T18:59:11.929Z,45.27
2019-05-22T19:01:40.180Z,45.92
2019-05-22T19:04:08.190Z,46.03
2019-05-22T19:06:36.098Z,46.38
2019-05-22T19:09:10.197Z,46.70
2019-05-22T19:11:38.055Z,47.14
2019-05-22T19:14:06.841Z,47.01
2019-05-22T19:16:34.855Z,47.56
2019-05-22T19:19:03.006Z,47.93
2019-05-22T19:21:35.084Z,47.49
2019-05-22T19:24:02.987Z,48.33
2019-05-22T19:26:30.987Z,48.90
2019-05-22T19:29:03.754Z,48.97
2019-05-22T19:31:31.380Z,49.65
2019-05-22T19:34:00.485Z,50.13
2019-05-22T19:36:27.946Z,49.61
2019-05-22T19:38:56.059Z,50.18
2019-05-22T19:41:31.725Z,49.40
2019-05-22T19:43:59.066Z,49.91
2019-05-22T19:46:27.602Z,51.39
2019-05-22T19:49:09.269Z,52.83
2019-05-22T19:51:43.495Z,52.94
2019-05-22T19:54:11.540Z,51.31
2019-05-22T19:56:40.326Z,53.72
2019-05-22T19:59:10.775Z,55.24
2019-05-22T20:01:40.418Z,55.40
2019-05-22T20:04:09.465Z,55.32
2019-05-22T20:06:38.458Z,55.62
2019-05-22T20:09:11.435Z,54.08
2019-05-22T20:11:44.567Z,55.61
2019-05-22T20:14:15.452Z,53.84
2019-05-22T20:16:46.019Z,53.04
2019-05-22T20:19:13.639Z,54.48
2019-05-22T20:21:41.652Z,56.28
2019-05-22T20:24:09.634Z,57.99
2019-05-22T20:26:37.134Z,57.04
2019-05-22T20:29:06.705Z,58.03
2019-05-22T20:31:35.223Z,57.83
2019-05-22T20:34:03.830Z,57.37
2019-05-22T20:36:32.003Z,56.35
2019-05-22T20:39:05.957Z,55.60
2019-05-22T20:41:33.590Z,55.22
2019-05-22T20:44:02.881Z,58.38
2019-05-22T20:46:30.305Z,59.54
2019-05-22T20:49:00.044Z,57.91
2019-05-22T20:51:28.401Z,58.04
2019-05-22T20:53:56.774Z,62.17
2019-05-22T20:56:28.831Z,62.97
2019-05-22T20:59:00.616Z,60.01
2019-05-22T21:01:29.471Z,57.37
2019-05-22T21:04:00.959Z,56.92
2019-05-22T21:06:32.503Z,58.34
2019-05-22T21:09:01.154Z,56.59
2019-05-22T21:11:30.484Z,56.28
2019-05-22T21:13:58.407Z,56.10
2019-05-22T21:16:26.719Z,57.68
2019-05-22T21:18:57.452Z,56.63
2019-05-22T21:21:25.445Z,56.15
2019-05-22T21:24:09.327Z,56.33
2019-05-22T21:26:24.614Z,55.93
2019-05-22T21:28:52.783Z,55.91
2019-05-22T21:31:26.118Z,58.02
2019-05-22T21:33:55.258Z,60.60
2019-05-22T21:36:22.987Z,57.08
2019-05-22T21:38:52.289Z,56.95
2019-05-22T21:41:21.662Z,57.26
2019-05-22T21:43:50.711Z,57.01
2019-05-22T21:46:17.974Z,61.79
2019-05-22T21:48:47.468Z,57.79
2019-05-22T21:51:15.965Z,56.97
2019-05-22T21:53:43.630Z,62.60
2019-05-22T21:56:11.446Z,63.37
2019-05-22T21:58:38.943Z,59.88
2019-05-22T22:01:16.982Z,63.12
2019-05-22T22:03:55.825Z,67.26
2019-05-22T22:06:23.845Z,62.41
2019-05-22T22:08:52.089Z,68.71
2019-05-22T22:11:25.329Z,65.94
2019-05-22T22:13:56.635Z,63.66
2019-05-22T22:16:25.004Z,62.14
2019-05-22T22:18:55.290Z,62.78
2019-05-22T22:21:23.387Z,67.13
2019-05-22T22:23:52.504Z,69.88
2019-05-22T22:26:25.868Z,67.36
2019-05-22T22:28:50.793Z,68.79
2019-05-22T22:31:29.535Z,68.78
2019-05-22T22:34:12.656Z,68.81
2019-05-22T22:36:41.074Z,70.88
2019-05-22T22:39:11.552Z,70.99
2019-05-22T22:41:42.250Z,71.21
2019-05-22T22:44:11.750Z,72.10
2019-05-22T22:47:10.745Z,71.03
2019-05-22T22:49:40.561Z,72.81
2019-05-22T22:52:13.315Z,71.51
2019-05-22T22:54:42.464Z,70.80
2019-05-22T22:57:13.855Z,72.43
2019-05-22T22:59:44.208Z,71.28
2019-05-22T23:02:15.870Z,70.59
2019-05-22T23:04:45.111Z,73.79
2019-05-22T23:07:16.639Z,73.55
2019-05-22T23:09:44.015Z,75.83
2019-05-22T23:12:13.172Z,73.54
2019-05-22T23:14:47.847Z,74.89
2019-05-22T23:17:19.676Z,73.46
2019-05-22T23:19:46.375Z,73.69
2019-05-22T23:22:18.800Z,74.52
2019-05-22T23:24:48.734Z,72.89
2019-05-22T23:27:17.023Z,71.58
2019-05-22T23:29:45.443Z,71.53
2019-05-22T23:32:18.118Z,72.46
2019-05-22T23:34:48.315Z,73.14
2019-05-22T23:37:18.193Z,72.37
2019-05-22T23:39:46.772Z,72.15
2019-05-22T23:42:21.791Z,72.70
2019-05-22T23:44:53.832Z,73.11
2019-05-22T23:47:26.347Z,74.90
2019-05-22T23:49:55.525Z,73.52
2019-05-22T23:52:23.945Z,73.25
2019-05-22T23:54:53.073Z,72.76
2019-05-22T23:57:21.892Z,72.75
